sensor_id;sensor_type;location;lat;lon;timestamp;P1;durP1;ratioP1;P2;durP2;ratioP2
61905;SDS011;47863;55.766;37.672;2023-03-31T00:01:59;2.88;;;1.52;;
61905;SDS011;47863;55.766;37.672;2023-03-31T00:04:26;5.65;;;2.65;;
61905;SDS011;47863;55.766;37.672;2023-03-31T00:06:52;4.32;;;2.20;;
61905;SDS011;47863;55.766;37.672;2023-03-31T00:09:18;4.57;;;2.10;;
61905;SDS011;47863;55.766;37.672;2023-03-31T00:11:49;4.88;;;2.53;;
61905;SDS011;47863;55.766;37.672;2023-03-31T00:14:16;4.70;;;2.63;;
61905;SDS011;47863;55.766;37.672;2023-03-31T00:16:44;5.72;;;2.75;;
61905;SDS011;47863;55.766;37.672;2023-03-31T00:19:10;6.75;;;3.50;;
61905;SDS011;47863;55.766;37.672;2023-03-31T00:21:51;3.15;;;1.52;;
61905;SDS011;47863;55.766;37.672;2023-03-31T00:24:18;4.35;;;2.22;;
61905;SDS011;47863;55.766;37.672;2023-03-31T00:26:44;5.35;;;2.13;;
61905;SDS011;47863;55.766;37.672;2023-03-31T00:29:11;5.38;;;3.25;;
61905;SDS011;47863;55.766;37.672;2023-03-31T00:31:37;8.13;;;3.17;;
61905;SDS011;47863;55.766;37.672;2023-03-31T00:34:03;6.15;;;2.80;;
61905;SDS011;47863;55.766;37.672;2023-03-31T00:36:30;6.55;;;3.13;;
61905;SDS011;47863;55.766;37.672;2023-03-31T00:38:57;4.05;;;1.85;;
61905;SDS011;47863;55.766;37.672;2023-03-31T00:41:24;3.78;;;1.63;;
61905;SDS011;47863;55.766;37.672;2023-03-31T00:44:00;3.10;;;1.75;;
61905;SDS011;47863;55.766;37.672;2023-03-31T00:52:10;3.33;;;2.10;;
61905;SDS011;47863;55.766;37.672;2023-03-31T00:54:42;4.45;;;2.03;;
61905;SDS011;47863;55.766;37.672;2023-03-31T00:57:11;4.80;;;2.00;;
61905;SDS011;47863;55.766;37.672;2023-03-31T00:59:44;3.22;;;1.50;;
61905;SDS011;47863;55.766;37.672;2023-03-31T01:02:13;5.65;;;2.60;;
61905;SDS011;47863;55.766;37.672;2023-03-31T01:04:45;4.57;;;2.25;;
61905;SDS011;47863;55.766;37.672;2023-03-31T01:07:23;4.68;;;1.30;;
61905;SDS011;47863;55.766;37.672;2023-03-31T01:09:56;3.08;;;1.33;;
61905;SDS011;47863;55.766;37.672;2023-03-31T01:12:24;3.22;;;1.42;;
61905;SDS011;47863;55.766;37.672;2023-03-31T01:14:51;5.20;;;2.08;;
61905;SDS011;47863;55.766;37.672;2023-03-31T01:17:17;5.03;;;2.50;;
61905;SDS011;47863;55.766;37.672;2023-03-31T01:42:43;3.63;;;1.80;;
61905;SDS011;47863;55.766;37.672;2023-03-31T01:48:15;3.97;;;2.10;;
61905;SDS011;47863;55.766;37.672;2023-03-31T01:50:52;2.15;;;1.33;;
61905;SDS011;47863;55.766;37.672;2023-03-31T01:54:26;2.35;;;1.45;;
61905;SDS011;47863;55.766;37.672;2023-03-31T01:56:30;2.90;;;1.70;;
61905;SDS011;47863;55.766;37.672;2023-03-31T01:59:10;3.75;;;1.80;;
61905;SDS011;47863;55.766;37.672;2023-03-31T02:04:31;3.92;;;1.83;;
61905;SDS011;47863;55.766;37.672;2023-03-31T02:07:07;3.63;;;1.58;;
61905;SDS011;47863;55.766;37.672;2023-03-31T02:09:37;4.55;;;2.50;;
61905;SDS011;47863;55.766;37.672;2023-03-31T02:12:07;2.97;;;1.63;;
61905;SDS011;47863;55.766;37.672;2023-03-31T02:14:36;4.53;;;2.28;;
61905;SDS011;47863;55.766;37.672;2023-03-31T02:17:05;4.32;;;2.03;;
61905;SDS011;47863;55.766;37.672;2023-03-31T02:19:33;3.92;;;1.60;;
61905;SDS011;47863;55.766;37.672;2023-03-31T02:22:04;2.63;;;1.48;;
61905;SDS011;47863;55.766;37.672;2023-03-31T02:24:31;4.97;;;2.40;;
61905;SDS011;47863;55.766;37.672;2023-03-31T02:27:43;4.18;;;2.08;;
61905;SDS011;47863;55.766;37.672;2023-03-31T02:29:50;4.18;;;2.50;;
61905;SDS011;47863;55.766;37.672;2023-03-31T02:32:21;3.38;;;1.52;;
61905;SDS011;47863;55.766;37.672;2023-03-31T02:34:52;3.15;;;1.75;;
61905;SDS011;47863;55.766;37.672;2023-03-31T02:37:18;3.00;;;1.48;;
61905;SDS011;47863;55.766;37.672;2023-03-31T02:39:45;3.58;;;2.03;;
61905;SDS011;47863;55.766;37.672;2023-03-31T02:42:13;3.75;;;1.45;;
61905;SDS011;47863;55.766;37.672;2023-03-31T02:44:40;3.97;;;2.03;;
61905;SDS011;47863;55.766;37.672;2023-03-31T02:47:10;2.92;;;1.70;;
61905;SDS011;47863;55.766;37.672;2023-03-31T02:49:39;3.25;;;1.63;;
61905;SDS011;47863;55.766;37.672;2023-03-31T03:00:07;3.33;;;1.55;;
61905;SDS011;47863;55.766;37.672;2023-03-31T03:05:27;3.13;;;1.23;;
61905;SDS011;47863;55.766;37.672;2023-03-31T03:08:14;3.95;;;1.55;;
61905;SDS011;47863;55.766;37.672;2023-03-31T03:11:09;4.13;;;1.65;;
61905;SDS011;47863;55.766;37.672;2023-03-31T03:13:48;3.80;;;1.95;;
61905;SDS011;47863;55.766;37.672;2023-03-31T03:16:23;3.63;;;1.95;;
61905;SDS011;47863;55.766;37.672;2023-03-31T03:19:02;3.17;;;1.80;;
61905;SDS011;47863;55.766;37.672;2023-03-31T03:21:30;2.97;;;1.60;;
61905;SDS011;47863;55.766;37.672;2023-03-31T03:23:56;3.00;;;1.50;;
61905;SDS011;47863;55.766;37.672;2023-03-31T03:26:24;4.03;;;1.85;;
61905;SDS011;47863;55.766;37.672;2023-03-31T03:28:52;1.38;;;0.98;;
61905;SDS011;47863;55.766;37.672;2023-03-31T03:31:19;4.43;;;1.92;;
61905;SDS011;47863;55.766;37.672;2023-03-31T03:33:50;5.65;;;2.97;;
61905;SDS011;47863;55.766;37.672;2023-03-31T03:36:16;3.67;;;1.88;;
61905;SDS011;47863;55.766;37.672;2023-03-31T03:38:41;3.88;;;1.73;;
61905;SDS011;47863;55.766;37.672;2023-03-31T03:41:07;2.92;;;1.42;;
61905;SDS011;47863;55.766;37.672;2023-03-31T03:43:33;3.25;;;1.58;;
61905;SDS011;47863;55.766;37.672;2023-03-31T03:45:58;2.42;;;1.05;;
61905;SDS011;47863;55.766;37.672;2023-03-31T03:48:24;5.03;;;2.30;;
61905;SDS011;47863;55.766;37.672;2023-03-31T03:50:51;1.90;;;1.13;;
61905;SDS011;47863;55.766;37.672;2023-03-31T03:53:18;2.47;;;1.30;;
61905;SDS011;47863;55.766;37.672;2023-03-31T03:55:44;3.70;;;1.65;;
61905;SDS011;47863;55.766;37.672;2023-03-31T03:58:13;4.88;;;2.75;;
61905;SDS011;47863;55.766;37.672;2023-03-31T04:00:40;3.63;;;1.70;;
61905;SDS011;47863;55.766;37.672;2023-03-31T04:03:05;4.00;;;1.77;;
61905;SDS011;47863;55.766;37.672;2023-03-31T04:05:31;2.65;;;1.50;;
61905;SDS011;47863;55.766;37.672;2023-03-31T04:07:56;3.97;;;2.05;;
61905;SDS011;47863;55.766;37.672;2023-03-31T04:10:22;4.57;;;2.55;;
61905;SDS011;47863;55.766;37.672;2023-03-31T04:12:47;3.17;;;1.67;;
61905;SDS011;47863;55.766;37.672;2023-03-31T04:15:13;3.47;;;1.90;;
61905;SDS011;47863;55.766;37.672;2023-03-31T04:17:39;5.90;;;2.72;;
61905;SDS011;47863;55.766;37.672;2023-03-31T04:20:05;4.50;;;2.60;;
61905;SDS011;47863;55.766;37.672;2023-03-31T04:22:36;4.40;;;2.30;;
61905;SDS011;47863;55.766;37.672;2023-03-31T04:25:08;3.90;;;1.88;;
61905;SDS011;47863;55.766;37.672;2023-03-31T04:27:45;5.28;;;2.42;;
61905;SDS011;47863;55.766;37.672;2023-03-31T04:30:27;3.90;;;2.05;;
61905;SDS011;47863;55.766;37.672;2023-03-31T04:32:56;4.93;;;2.10;;
61905;SDS011;47863;55.766;37.672;2023-03-31T04:35:24;4.50;;;2.40;;
61905;SDS011;47863;55.766;37.672;2023-03-31T04:38:12;3.78;;;1.90;;
61905;SDS011;47863;55.766;37.672;2023-03-31T04:40:38;5.25;;;3.00;;
61905;SDS011;47863;55.766;37.672;2023-03-31T04:43:05;4.70;;;2.58;;
61905;SDS011;47863;55.766;37.672;2023-03-31T04:45:31;4.55;;;2.38;;
61905;SDS011;47863;55.766;37.672;2023-03-31T04:47:56;3.13;;;1.70;;
61905;SDS011;47863;55.766;37.672;2023-03-31T04:50:22;5.45;;;2.50;;
61905;SDS011;47863;55.766;37.672;2023-03-31T04:52:47;2.90;;;1.45;;
61905;SDS011;47863;55.766;37.672;2023-03-31T04:55:13;3.13;;;1.58;;
61905;SDS011;47863;55.766;37.672;2023-03-31T04:57:38;5.40;;;2.92;;
61905;SDS011;47863;55.766;37.672;2023-03-31T05:00:04;3.22;;;1.75;;
61905;SDS011;47863;55.766;37.672;2023-03-31T05:02:36;6.18;;;2.72;;
61905;SDS011;47863;55.766;37.672;2023-03-31T05:05:02;4.65;;;1.40;;
61905;SDS011;47863;55.766;37.672;2023-03-31T05:07:28;4.00;;;1.95;;
61905;SDS011;47863;55.766;37.672;2023-03-31T05:09:54;4.88;;;2.83;;
61905;SDS011;47863;55.766;37.672;2023-03-31T05:12:19;4.60;;;2.15;;
61905;SDS011;47863;55.766;37.672;2023-03-31T05:14:45;4.10;;;1.95;;
61905;SDS011;47863;55.766;37.672;2023-03-31T05:17:11;5.03;;;2.83;;
61905;SDS011;47863;55.766;37.672;2023-03-31T05:19:36;4.95;;;2.15;;
61905;SDS011;47863;55.766;37.672;2023-03-31T05:22:02;5.05;;;2.08;;
61905;SDS011;47863;55.766;37.672;2023-03-31T05:24:27;5.25;;;2.50;;
61905;SDS011;47863;55.766;37.672;2023-03-31T05:26:54;5.10;;;2.70;;
61905;SDS011;47863;55.766;37.672;2023-03-31T05:29:21;4.05;;;2.10;;
61905;SDS011;47863;55.766;37.672;2023-03-31T05:31:48;3.20;;;1.48;;
61905;SDS011;47863;55.766;37.672;2023-03-31T05:34:14;5.60;;;2.70;;
61905;SDS011;47863;55.766;37.672;2023-03-31T05:36:40;4.10;;;2.30;;
61905;SDS011;47863;55.766;37.672;2023-03-31T05:39:07;6.35;;;2.78;;
61905;SDS011;47863;55.766;37.672;2023-03-31T05:41:33;4.07;;;1.85;;
61905;SDS011;47863;55.766;37.672;2023-03-31T05:43:59;6.05;;;2.25;;
61905;SDS011;47863;55.766;37.672;2023-03-31T05:46:26;5.55;;;2.25;;
61905;SDS011;47863;55.766;37.672;2023-03-31T05:48:52;5.05;;;2.72;;
61905;SDS011;47863;55.766;37.672;2023-03-31T05:51:17;5.80;;;2.97;;
61905;SDS011;47863;55.766;37.672;2023-03-31T05:53:43;7.57;;;3.13;;
61905;SDS011;47863;55.766;37.672;2023-03-31T05:56:08;4.88;;;2.05;;
61905;SDS011;47863;55.766;37.672;2023-03-31T05:58:36;5.03;;;2.55;;
61905;SDS011;47863;55.766;37.672;2023-03-31T06:01:08;7.43;;;3.40;;
61905;SDS011;47863;55.766;37.672;2023-03-31T06:03:36;6.85;;;3.00;;
61905;SDS011;47863;55.766;37.672;2023-03-31T06:06:05;4.30;;;2.35;;
61905;SDS011;47863;55.766;37.672;2023-03-31T06:08:35;5.70;;;2.78;;
61905;SDS011;47863;55.766;37.672;2023-03-31T06:11:05;6.88;;;3.00;;
61905;SDS011;47863;55.766;37.672;2023-03-31T06:13:32;8.48;;;3.60;;
61905;SDS011;47863;55.766;37.672;2023-03-31T06:15:58;5.50;;;2.65;;
61905;SDS011;47863;55.766;37.672;2023-03-31T06:18:26;4.95;;;2.38;;
61905;SDS011;47863;55.766;37.672;2023-03-31T06:20:53;5.15;;;3.13;;
61905;SDS011;47863;55.766;37.672;2023-03-31T06:23:19;4.30;;;2.20;;
61905;SDS011;47863;55.766;37.672;2023-03-31T06:25:45;5.45;;;2.00;;
61905;SDS011;47863;55.766;37.672;2023-03-31T06:28:11;7.60;;;2.30;;
61905;SDS011;47863;55.766;37.672;2023-03-31T06:30:37;6.32;;;2.33;;
61905;SDS011;47863;55.766;37.672;2023-03-31T06:33:02;6.18;;;3.22;;
61905;SDS011;47863;55.766;37.672;2023-03-31T06:35:28;9.00;;;3.25;;
61905;SDS011;47863;55.766;37.672;2023-03-31T06:37:54;5.13;;;2.47;;
61905;SDS011;47863;55.766;37.672;2023-03-31T06:40:19;5.00;;;2.38;;
61905;SDS011;47863;55.766;37.672;2023-03-31T06:42:45;6.40;;;2.90;;
61905;SDS011;47863;55.766;37.672;2023-03-31T06:45:10;6.30;;;2.42;;
61905;SDS011;47863;55.766;37.672;2023-03-31T06:47:36;14.40;;;5.25;;
61905;SDS011;47863;55.766;37.672;2023-03-31T06:50:05;9.93;;;4.00;;
61905;SDS011;47863;55.766;37.672;2023-03-31T06:52:33;5.03;;;2.30;;
61905;SDS011;47863;55.766;37.672;2023-03-31T06:54:58;10.65;;;3.60;;
61905;SDS011;47863;55.766;37.672;2023-03-31T06:57:28;6.40;;;2.35;;
61905;SDS011;47863;55.766;37.672;2023-03-31T06:59:56;7.63;;;3.17;;
61905;SDS011;47863;55.766;37.672;2023-03-31T07:02:22;8.30;;;3.78;;
61905;SDS011;47863;55.766;37.672;2023-03-31T07:04:47;7.25;;;3.63;;
61905;SDS011;47863;55.766;37.672;2023-03-31T07:07:13;4.70;;;2.55;;
61905;SDS011;47863;55.766;37.672;2023-03-31T07:09:38;8.95;;;4.05;;
61905;SDS011;47863;55.766;37.672;2023-03-31T07:12:04;7.20;;;3.65;;
61905;SDS011;47863;55.766;37.672;2023-03-31T07:14:30;6.65;;;3.53;;
61905;SDS011;47863;55.766;37.672;2023-03-31T07:16:56;3.88;;;1.88;;
61905;SDS011;47863;55.766;37.672;2023-03-31T07:19:22;6.07;;;2.28;;
61905;SDS011;47863;55.766;37.672;2023-03-31T07:21:48;8.13;;;3.17;;
61905;SDS011;47863;55.766;37.672;2023-03-31T07:24:13;4.07;;;2.20;;
61905;SDS011;47863;55.766;37.672;2023-03-31T07:26:39;7.25;;;3.70;;
61905;SDS011;47863;55.766;37.672;2023-03-31T07:29:04;5.70;;;3.10;;
61905;SDS011;47863;55.766;37.672;2023-03-31T07:31:30;12.77;;;3.55;;
61905;SDS011;47863;55.766;37.672;2023-03-31T07:33:56;9.80;;;4.53;;
61905;SDS011;47863;55.766;37.672;2023-03-31T07:36:21;9.93;;;3.25;;
61905;SDS011;47863;55.766;37.672;2023-03-31T07:38:47;6.63;;;2.40;;
61905;SDS011;47863;55.766;37.672;2023-03-31T07:41:14;5.03;;;2.70;;
61905;SDS011;47863;55.766;37.672;2023-03-31T07:43:41;5.72;;;3.13;;
61905;SDS011;47863;55.766;37.672;2023-03-31T07:46:21;5.15;;;2.20;;
61905;SDS011;47863;55.766;37.672;2023-03-31T07:48:49;4.88;;;2.17;;
61905;SDS011;47863;55.766;37.672;2023-03-31T07:51:16;6.00;;;2.85;;
61905;SDS011;47863;55.766;37.672;2023-03-31T07:53:44;7.30;;;3.03;;
61905;SDS011;47863;55.766;37.672;2023-03-31T07:56:10;8.05;;;2.70;;
61905;SDS011;47863;55.766;37.672;2023-03-31T07:58:36;8.07;;;3.97;;
61905;SDS011;47863;55.766;37.672;2023-03-31T08:01:02;9.43;;;3.58;;
61905;SDS011;47863;55.766;37.672;2023-03-31T08:03:27;6.57;;;2.50;;
61905;SDS011;47863;55.766;37.672;2023-03-31T08:05:53;7.90;;;3.22;;
61905;SDS011;47863;55.766;37.672;2023-03-31T08:08:19;4.38;;;2.20;;
61905;SDS011;47863;55.766;37.672;2023-03-31T08:10:45;4.18;;;2.22;;
61905;SDS011;47863;55.766;37.672;2023-03-31T08:13:11;8.77;;;2.67;;
61905;SDS011;47863;55.766;37.672;2023-03-31T08:15:37;7.65;;;3.53;;
61905;SDS011;47863;55.766;37.672;2023-03-31T08:18:03;6.68;;;3.22;;
61905;SDS011;47863;55.766;37.672;2023-03-31T08:20:29;5.65;;;3.10;;
61905;SDS011;47863;55.766;37.672;2023-03-31T08:22:54;6.45;;;3.45;;
61905;SDS011;47863;55.766;37.672;2023-03-31T08:25:20;7.32;;;3.13;;
61905;SDS011;47863;55.766;37.672;2023-03-31T08:27:45;6.50;;;3.35;;
61905;SDS011;47863;55.766;37.672;2023-03-31T08:30:15;6.60;;;3.35;;
61905;SDS011;47863;55.766;37.672;2023-03-31T08:32:42;6.85;;;3.55;;
61905;SDS011;47863;55.766;37.672;2023-03-31T08:35:08;7.35;;;3.17;;
61905;SDS011;47863;55.766;37.672;2023-03-31T08:37:34;7.47;;;4.57;;
61905;SDS011;47863;55.766;37.672;2023-03-31T08:40:02;7.38;;;3.40;;
61905;SDS011;47863;55.766;37.672;2023-03-31T08:42:36;6.20;;;3.30;;
61905;SDS011;47863;55.766;37.672;2023-03-31T08:47:56;4.20;;;1.83;;
61905;SDS011;47863;55.766;37.672;2023-03-31T08:50:26;6.15;;;3.13;;
61905;SDS011;47863;55.766;37.672;2023-03-31T08:53:00;7.43;;;3.60;;
61905;SDS011;47863;55.766;37.672;2023-03-31T08:58:35;9.02;;;3.90;;
61905;SDS011;47863;55.766;37.672;2023-03-31T09:07:07;7.05;;;3.70;;
61905;SDS011;47863;55.766;37.672;2023-03-31T09:12:16;5.57;;;3.13;;
61905;SDS011;47863;55.766;37.672;2023-03-31T09:14:51;4.10;;;2.03;;
61905;SDS011;47863;55.766;37.672;2023-03-31T09:19:53;9.68;;;3.35;;
61905;SDS011;47863;55.766;37.672;2023-03-31T09:22:32;4.32;;;2.60;;
61905;SDS011;47863;55.766;37.672;2023-03-31T09:25:06;4.47;;;1.95;;
61905;SDS011;47863;55.766;37.672;2023-03-31T09:27:40;6.07;;;3.00;;
61905;SDS011;47863;55.766;37.672;2023-03-31T09:32:40;5.25;;;3.30;;
61905;SDS011;47863;55.766;37.672;2023-03-31T09:38:02;6.20;;;3.10;;
61905;SDS011;47863;55.766;37.672;2023-03-31T09:40:28;7.03;;;2.72;;
61905;SDS011;47863;55.766;37.672;2023-03-31T09:42:58;5.68;;;2.60;;
61905;SDS011;47863;55.766;37.672;2023-03-31T09:45:26;6.93;;;3.15;;
61905;SDS011;47863;55.766;37.672;2023-03-31T09:47:53;5.32;;;2.88;;
61905;SDS011;47863;55.766;37.672;2023-03-31T09:50:21;5.03;;;2.38;;
61905;SDS011;47863;55.766;37.672;2023-03-31T09:52:52;4.35;;;2.00;;
61905;SDS011;47863;55.766;37.672;2023-03-31T09:57:49;4.68;;;2.00;;
61905;SDS011;47863;55.766;37.672;2023-03-31T10:00:16;4.10;;;1.85;;
61905;SDS011;47863;55.766;37.672;2023-03-31T10:02:56;4.88;;;2.40;;
61905;SDS011;47863;55.766;37.672;2023-03-31T10:10:42;4.90;;;2.15;;
61905;SDS011;47863;55.766;37.672;2023-03-31T10:13:10;6.80;;;2.50;;
61905;SDS011;47863;55.766;37.672;2023-03-31T10:15:41;4.70;;;2.30;;
61905;SDS011;47863;55.766;37.672;2023-03-31T10:18:13;6.63;;;2.17;;
61905;SDS011;47863;55.766;37.672;2023-03-31T10:20:47;8.13;;;2.63;;
61905;SDS011;47863;55.766;37.672;2023-03-31T10:28:14;7.65;;;3.42;;
61905;SDS011;47863;55.766;37.672;2023-03-31T10:30:45;4.38;;;2.17;;
61905;SDS011;47863;55.766;37.672;2023-03-31T10:33:15;5.07;;;1.98;;
61905;SDS011;47863;55.766;37.672;2023-03-31T10:35:58;4.30;;;2.25;;
61905;SDS011;47863;55.766;37.672;2023-03-31T10:38:29;3.17;;;1.70;;
61905;SDS011;47863;55.766;37.672;2023-03-31T10:40:58;4.13;;;1.67;;
61905;SDS011;47863;55.766;37.672;2023-03-31T10:45:56;3.95;;;2.03;;
61905;SDS011;47863;55.766;37.672;2023-03-31T10:48:25;3.60;;;1.65;;
61905;SDS011;47863;55.766;37.672;2023-03-31T10:51:04;6.13;;;2.42;;
61905;SDS011;47863;55.766;37.672;2023-03-31T11:11:57;5.13;;;2.20;;
61905;SDS011;47863;55.766;37.672;2023-03-31T11:14:53;4.57;;;1.83;;
61905;SDS011;47863;55.766;37.672;2023-03-31T11:23:40;4.53;;;2.15;;
61905;SDS011;47863;55.766;37.672;2023-03-31T11:26:26;3.55;;;1.60;;
61905;SDS011;47863;55.766;37.672;2023-03-31T11:37:21;3.72;;;1.83;;
61905;SDS011;47863;55.766;37.672;2023-03-31T11:42:51;4.97;;;2.67;;
61905;SDS011;47863;55.766;37.672;2023-03-31T11:45:24;8.15;;;3.42;;
61905;SDS011;47863;55.766;37.672;2023-03-31T11:47:58;11.68;;;3.28;;
61905;SDS011;47863;55.766;37.672;2023-03-31T11:50:36;6.07;;;2.80;;
61905;SDS011;47863;55.766;37.672;2023-03-31T11:53:05;4.93;;;2.50;;
61905;SDS011;47863;55.766;37.672;2023-03-31T11:55:37;5.57;;;2.75;;
61905;SDS011;47863;55.766;37.672;2023-03-31T12:00:42;5.82;;;2.47;;
61905;SDS011;47863;55.766;37.672;2023-03-31T12:03:13;5.43;;;2.53;;
61905;SDS011;47863;55.766;37.672;2023-03-31T12:05:45;6.43;;;2.42;;
61905;SDS011;47863;55.766;37.672;2023-03-31T12:08:32;4.88;;;2.80;;
61905;SDS011;47863;55.766;37.672;2023-03-31T12:11:04;5.47;;;2.65;;
61905;SDS011;47863;55.766;37.672;2023-03-31T12:17:03;5.35;;;2.15;;
61905;SDS011;47863;55.766;37.672;2023-03-31T12:24:33;6.28;;;2.95;;
61905;SDS011;47863;55.766;37.672;2023-03-31T12:29:37;6.78;;;2.92;;
61905;SDS011;47863;55.766;37.672;2023-03-31T12:32:17;8.35;;;3.60;;
61905;SDS011;47863;55.766;37.672;2023-03-31T12:34:54;6.10;;;2.67;;
61905;SDS011;47863;55.766;37.672;2023-03-31T12:45:25;6.22;;;2.60;;
61905;SDS011;47863;55.766;37.672;2023-03-31T12:48:38;6.60;;;2.33;;
61905;SDS011;47863;55.766;37.672;2023-03-31T12:56:19;5.43;;;2.78;;
61905;SDS011;47863;55.766;37.672;2023-03-31T12:58:45;8.95;;;3.65;;
61905;SDS011;47863;55.766;37.672;2023-03-31T13:11:37;5.90;;;2.70;;
61905;SDS011;47863;55.766;37.672;2023-03-31T13:14:20;7.65;;;3.42;;
61905;SDS011;47863;55.766;37.672;2023-03-31T13:16:50;5.15;;;2.40;;
61905;SDS011;47863;55.766;37.672;2023-03-31T13:19:38;9.40;;;4.00;;
61905;SDS011;47863;55.766;37.672;2023-03-31T13:22:06;9.13;;;3.80;;
61905;SDS011;47863;55.766;37.672;2023-03-31T13:24:32;7.45;;;3.15;;
61905;SDS011;47863;55.766;37.672;2023-03-31T13:35:29;4.03;;;1.77;;
61905;SDS011;47863;55.766;37.672;2023-03-31T13:38:17;7.10;;;2.72;;
61905;SDS011;47863;55.766;37.672;2023-03-31T13:41:09;6.32;;;2.63;;
61905;SDS011;47863;55.766;37.672;2023-03-31T13:44:01;8.05;;;3.83;;
61905;SDS011;47863;55.766;37.672;2023-03-31T13:47:14;8.35;;;3.13;;
61905;SDS011;47863;55.766;37.672;2023-03-31T13:49:50;12.00;;;5.32;;
61905;SDS011;47863;55.766;37.672;2023-03-31T13:52:34;6.72;;;3.65;;
61905;SDS011;47863;55.766;37.672;2023-03-31T14:07:01;10.10;;;3.58;;
61905;SDS011;47863;55.766;37.672;2023-03-31T14:09:38;7.28;;;3.00;;
61905;SDS011;47863;55.766;37.672;2023-03-31T14:15:03;7.40;;;3.28;;
61905;SDS011;47863;55.766;37.672;2023-03-31T14:17:37;6.82;;;3.13;;
61905;SDS011;47863;55.766;37.672;2023-03-31T14:31:00;12.00;;;5.15;;
61905;SDS011;47863;55.766;37.672;2023-03-31T14:39:23;10.20;;;4.80;;
61905;SDS011;47863;55.766;37.672;2023-03-31T14:41:56;10.10;;;4.60;;
61905;SDS011;47863;55.766;37.672;2023-03-31T14:44:25;10.48;;;4.30;;
61905;SDS011;47863;55.766;37.672;2023-03-31T14:46:51;6.97;;;3.28;;
61905;SDS011;47863;55.766;37.672;2023-03-31T14:49:20;10.13;;;4.10;;
61905;SDS011;47863;55.766;37.672;2023-03-31T14:52:00;6.68;;;2.88;;
61905;SDS011;47863;55.766;37.672;2023-03-31T14:54:27;11.00;;;4.25;;
61905;SDS011;47863;55.766;37.672;2023-03-31T14:57:01;7.05;;;3.60;;
61905;SDS011;47863;55.766;37.672;2023-03-31T14:59:29;7.38;;;3.28;;
61905;SDS011;47863;55.766;37.672;2023-03-31T15:01:58;11.82;;;4.13;;
61905;SDS011;47863;55.766;37.672;2023-03-31T15:04:25;8.57;;;4.10;;
61905;SDS011;47863;55.766;37.672;2023-03-31T15:06:54;4.00;;;2.08;;
61905;SDS011;47863;55.766;37.672;2023-03-31T15:12:00;6.95;;;3.33;;
61905;SDS011;47863;55.766;37.672;2023-03-31T15:14:35;9.05;;;3.70;;
61905;SDS011;47863;55.766;37.672;2023-03-31T15:17:17;13.93;;;4.45;;
61905;SDS011;47863;55.766;37.672;2023-03-31T15:19:43;8.48;;;3.70;;
61905;SDS011;47863;55.766;37.672;2023-03-31T15:22:10;8.88;;;3.65;;
61905;SDS011;47863;55.766;37.672;2023-03-31T15:24:42;11.02;;;5.75;;
61905;SDS011;47863;55.766;37.672;2023-03-31T15:27:09;12.65;;;5.65;;
61905;SDS011;47863;55.766;37.672;2023-03-31T15:29:39;9.20;;;4.07;;
61905;SDS011;47863;55.766;37.672;2023-03-31T15:34:52;11.55;;;5.55;;
61905;SDS011;47863;55.766;37.672;2023-03-31T15:37:20;9.65;;;4.00;;
61905;SDS011;47863;55.766;37.672;2023-03-31T15:39:48;9.15;;;4.38;;
61905;SDS011;47863;55.766;37.672;2023-03-31T15:42:13;9.88;;;4.72;;
61905;SDS011;47863;55.766;37.672;2023-03-31T15:48:00;7.53;;;3.33;;
61905;SDS011;47863;55.766;37.672;2023-03-31T15:50:27;6.78;;;3.10;;
61905;SDS011;47863;55.766;37.672;2023-03-31T15:52:54;10.48;;;4.22;;
61905;SDS011;47863;55.766;37.672;2023-03-31T15:55:26;8.85;;;4.55;;
61905;SDS011;47863;55.766;37.672;2023-03-31T15:57:58;5.47;;;2.30;;
61905;SDS011;47863;55.766;37.672;2023-03-31T16:00:44;6.20;;;2.90;;
61905;SDS011;47863;55.766;37.672;2023-03-31T16:03:15;7.65;;;2.67;;
61905;SDS011;47863;55.766;37.672;2023-03-31T16:05:53;9.75;;;3.95;;
61905;SDS011;47863;55.766;37.672;2023-03-31T16:08:26;10.00;;;3.38;;
61905;SDS011;47863;55.766;37.672;2023-03-31T16:11:00;10.65;;;4.95;;
61905;SDS011;47863;55.766;37.672;2023-03-31T16:13:29;9.20;;;3.35;;
61905;SDS011;47863;55.766;37.672;2023-03-31T16:15:56;8.20;;;3.33;;
61905;SDS011;47863;55.766;37.672;2023-03-31T16:20:49;7.22;;;3.65;;
61905;SDS011;47863;55.766;37.672;2023-03-31T16:23:18;7.60;;;3.33;;
61905;SDS011;47863;55.766;37.672;2023-03-31T16:25:47;8.63;;;3.28;;
61905;SDS011;47863;55.766;37.672;2023-03-31T16:28:14;6.28;;;2.75;;
61905;SDS011;47863;55.766;37.672;2023-03-31T16:30:42;8.52;;;3.78;;
61905;SDS011;47863;55.766;37.672;2023-03-31T16:33:13;8.38;;;4.07;;
61905;SDS011;47863;55.766;37.672;2023-03-31T16:35:41;6.30;;;2.97;;
61905;SDS011;47863;55.766;37.672;2023-03-31T16:38:09;10.35;;;5.03;;
61905;SDS011;47863;55.766;37.672;2023-03-31T16:40:37;7.90;;;2.90;;
61905;SDS011;47863;55.766;37.672;2023-03-31T16:43:06;11.23;;;4.15;;
61905;SDS011;47863;55.766;37.672;2023-03-31T16:45:52;8.52;;;3.50;;
61905;SDS011;47863;55.766;37.672;2023-03-31T16:48:20;9.88;;;4.22;;
61905;SDS011;47863;55.766;37.672;2023-03-31T16:50:48;7.20;;;3.00;;
61905;SDS011;47863;55.766;37.672;2023-03-31T16:53:17;7.00;;;3.38;;
61905;SDS011;47863;55.766;37.672;2023-03-31T16:55:44;9.02;;;3.10;;
61905;SDS011;47863;55.766;37.672;2023-03-31T16:58:10;7.72;;;3.10;;
61905;SDS011;47863;55.766;37.672;2023-03-31T17:00:36;8.05;;;3.17;;
61905;SDS011;47863;55.766;37.672;2023-03-31T17:03:04;8.73;;;3.00;;
61905;SDS011;47863;55.766;37.672;2023-03-31T17:05:30;9.30;;;3.92;;
61905;SDS011;47863;55.766;37.672;2023-03-31T17:07:58;10.32;;;3.83;;
61905;SDS011;47863;55.766;37.672;2023-03-31T17:10:23;7.03;;;2.38;;
61905;SDS011;47863;55.766;37.672;2023-03-31T17:12:50;8.32;;;3.78;;
61905;SDS011;47863;55.766;37.672;2023-03-31T17:15:16;10.05;;;3.83;;
61905;SDS011;47863;55.766;37.672;2023-03-31T17:17:42;9.48;;;4.15;;
61905;SDS011;47863;55.766;37.672;2023-03-31T17:20:08;8.25;;;4.03;;
61905;SDS011;47863;55.766;37.672;2023-03-31T17:22:34;10.48;;;3.90;;
61905;SDS011;47863;55.766;37.672;2023-03-31T17:25:01;6.22;;;2.22;;
61905;SDS011;47863;55.766;37.672;2023-03-31T17:27:28;13.63;;;4.65;;
61905;SDS011;47863;55.766;37.672;2023-03-31T17:29:55;10.73;;;4.22;;
61905;SDS011;47863;55.766;37.672;2023-03-31T17:32:21;9.05;;;3.78;;
61905;SDS011;47863;55.766;37.672;2023-03-31T17:34:47;10.70;;;4.25;;
61905;SDS011;47863;55.766;37.672;2023-03-31T17:37:16;8.63;;;3.45;;
61905;SDS011;47863;55.766;37.672;2023-03-31T17:39:43;9.48;;;4.50;;
61905;SDS011;47863;55.766;37.672;2023-03-31T17:42:09;10.40;;;4.72;;
61905;SDS011;47863;55.766;37.672;2023-03-31T17:44:37;9.70;;;3.85;;
61905;SDS011;47863;55.766;37.672;2023-03-31T17:47:03;8.05;;;3.55;;
61905;SDS011;47863;55.766;37.672;2023-03-31T17:49:28;7.18;;;3.28;;
61905;SDS011;47863;55.766;37.672;2023-03-31T17:51:54;7.32;;;3.33;;
61905;SDS011;47863;55.766;37.672;2023-03-31T17:54:20;10.93;;;4.75;;
61905;SDS011;47863;55.766;37.672;2023-03-31T17:56:45;7.60;;;3.20;;
61905;SDS011;47863;55.766;37.672;2023-03-31T17:59:14;9.43;;;3.53;;
61905;SDS011;47863;55.766;37.672;2023-03-31T18:01:41;9.02;;;3.85;;
61905;SDS011;47863;55.766;37.672;2023-03-31T18:04:06;12.13;;;5.03;;
61905;SDS011;47863;55.766;37.672;2023-03-31T18:06:33;11.95;;;4.40;;
61905;SDS011;47863;55.766;37.672;2023-03-31T18:08:58;5.22;;;2.78;;
61905;SDS011;47863;55.766;37.672;2023-03-31T18:11:24;10.68;;;4.05;;
61905;SDS011;47863;55.766;37.672;2023-03-31T18:13:50;11.60;;;4.15;;
61905;SDS011;47863;55.766;37.672;2023-03-31T18:16:16;9.07;;;4.07;;